createdAt,value
2022-11-14T00:02:22.809Z,30.90
2022-11-14T00:04:57.454Z,29.90
2022-11-14T00:07:32.569Z,29.40
2022-11-14T00:10:05.210Z,28.70
2022-11-14T00:15:09.797Z,29.70
2022-11-14T00:17:42.614Z,30.90
2022-11-14T00:22:46.140Z,31.70
2022-11-14T00:25:18.584Z,28.70
2022-11-14T00:27:50.790Z,27.60
2022-11-14T00:30:23.139Z,25.20
2022-11-14T00:32:55.406Z,21.00
2022-11-14T00:35:30.176Z,20.80
2022-11-14T00:38:02.444Z,19.50
2022-11-14T00:40:34.687Z,19.20
2022-11-14T00:43:06.985Z,17.60
2022-11-14T00:45:39.236Z,18.20
2022-11-14T00:48:11.519Z,20.90
2022-11-14T00:50:43.892Z,23.20
2022-11-14T00:53:16.177Z,27.20
2022-11-14T00:55:48.429Z,29.90
2022-11-14T00:58:20.625Z,29.80
2022-11-14T01:00:53.116Z,28.80
2022-11-14T01:03:25.434Z,29.80
2022-11-14T01:05:57.764Z,29.90
2022-11-14T01:08:30.260Z,32.90
2022-11-14T01:13:35.551Z,31.60
2022-11-14T01:16:08.847Z,31.60
2022-11-14T01:18:42.560Z,30.30
2022-11-14T01:21:15.948Z,31.30
2022-11-14T01:23:48.271Z,32.70
2022-11-14T01:26:20.536Z,31.50
2022-11-14T01:28:52.694Z,33.50
2022-11-14T01:31:26.414Z,31.60
2022-11-14T01:33:58.651Z,29.90
2022-11-14T01:36:30.844Z,31.70
2022-11-14T01:39:03.098Z,29.10
2022-11-14T01:41:35.406Z,22.90
2022-11-14T01:44:15.255Z,27.60
2022-11-14T01:46:49.662Z,27.80
2022-11-14T01:49:23.920Z,28.10
2022-11-14T01:51:59.380Z,28.20
2022-11-14T01:54:33.872Z,27.30
2022-11-14T01:57:06.755Z,26.90
2022-11-14T01:59:42.620Z,28.70
2022-11-14T02:02:17.595Z,25.70
2022-11-14T02:04:52.143Z,25.00
2022-11-14T02:07:25.744Z,25.70
2022-11-14T02:09:58.286Z,26.20
2022-11-14T02:12:30.688Z,24.40
2022-11-14T02:15:04.481Z,23.00
2022-11-14T02:17:36.935Z,20.80
2022-11-14T02:20:24.129Z,25.30
2022-11-14T02:22:56.478Z,27.40
2022-11-14T02:25:29.004Z,27.40
2022-11-14T02:28:01.394Z,25.50
2022-11-14T02:30:33.751Z,24.60
2022-11-14T02:33:11.012Z,24.40
2022-11-14T02:35:44.182Z,25.90
2022-11-14T02:38:18.918Z,25.90
2022-11-14T02:40:51.626Z,25.80
2022-11-14T02:45:54.604Z,25.00
2022-11-14T02:48:26.997Z,25.80
2022-11-14T02:50:59.456Z,27.10
2022-11-14T02:53:31.695Z,24.50
2022-11-14T02:56:04.071Z,28.60
2022-11-14T02:58:36.293Z,27.40
2022-11-14T03:01:24.900Z,28.00
2022-11-14T03:03:57.360Z,26.80
2022-11-14T03:06:29.496Z,25.50
2022-11-14T03:09:01.875Z,26.80
2022-11-14T03:11:35.096Z,25.30
2022-11-14T03:14:07.341Z,25.00
2022-11-14T03:16:40.531Z,25.50
2022-11-14T03:19:12.804Z,25.10
2022-11-14T03:21:45.286Z,24.60
2022-11-14T03:24:17.620Z,25.40
2022-11-14T03:26:49.932Z,25.10
2022-11-14T03:29:22.310Z,23.10
2022-11-14T03:31:54.717Z,27.00
2022-11-14T03:34:27.038Z,26.50
2022-11-14T03:37:00.477Z,24.60
2022-11-14T03:39:32.819Z,25.80
2022-11-14T03:42:05.122Z,24.30
2022-11-14T03:44:38.247Z,23.90
2022-11-14T03:47:10.588Z,25.40
2022-11-14T03:49:45.113Z,23.50
2022-11-14T03:52:17.494Z,24.50
2022-11-14T03:54:50.463Z,25.10
2022-11-14T03:57:22.774Z,26.60
2022-11-14T03:59:55.009Z,23.60
2022-11-14T04:02:27.220Z,23.80
2022-11-14T04:04:59.439Z,24.50
2022-11-14T04:07:31.789Z,24.60
2022-11-14T04:10:04.131Z,24.60
2022-11-14T04:12:36.452Z,23.00
2022-11-14T04:15:10.585Z,24.70
2022-11-14T04:17:42.900Z,26.70
2022-11-14T04:20:16.469Z,23.60
2022-11-14T04:22:49.523Z,25.30
2022-11-14T04:25:22.503Z,24.80
2022-11-14T04:27:54.844Z,23.80
2022-11-14T04:30:30.880Z,25.90
2022-11-14T04:33:07.070Z,24.50
2022-11-14T04:38:10.578Z,25.10
2022-11-14T04:43:13.921Z,24.10
2022-11-14T04:48:17.041Z,27.10
2022-11-14T04:50:49.544Z,26.40
2022-11-14T04:53:22.309Z,26.30
2022-11-14T04:58:25.116Z,23.20
2022-11-14T05:00:57.986Z,25.20
2022-11-14T05:03:30.582Z,26.10
2022-11-14T05:08:36.811Z,25.60
2022-11-14T05:11:09.760Z,21.70
2022-11-14T05:13:43.868Z,24.70
2022-11-14T05:16:17.184Z,25.40
2022-11-14T05:18:49.997Z,26.30
2022-11-14T05:21:23.248Z,22.30
2022-11-14T05:23:56.803Z,24.40
2022-11-14T05:26:30.232Z,27.70
2022-11-14T05:29:03.405Z,25.70
2022-11-14T05:31:37.213Z,24.10
2022-11-14T05:34:11.433Z,23.90
2022-11-14T05:36:45.241Z,25.30
2022-11-14T05:39:19.794Z,25.30
2022-11-14T05:41:53.261Z,26.10
2022-11-14T05:44:28.718Z,22.20
2022-11-14T05:51:32.321Z,25.10
2022-11-14T05:54:05.551Z,25.40
2022-11-14T05:56:39.613Z,27.70
2022-11-14T05:59:11.845Z,23.60
2022-11-14T06:01:46.346Z,26.60
2022-11-14T06:04:20.311Z,28.20
2022-11-14T06:06:53.564Z,24.90
2022-11-14T06:16:17.520Z,27.70
2022-11-14T06:18:50.126Z,27.20
2022-11-14T06:21:24.082Z,23.50
2022-11-14T06:23:56.557Z,26.60
2022-11-14T06:26:31.647Z,27.90
2022-11-14T06:29:03.931Z,24.60
2022-11-14T06:31:36.111Z,25.10
2022-11-14T06:34:09.095Z,28.80
2022-11-14T06:36:41.415Z,28.80
2022-11-14T06:39:13.748Z,26.80
2022-11-14T06:41:45.943Z,26.90
2022-11-14T06:44:18.172Z,29.80
2022-11-14T06:46:50.413Z,28.60
2022-11-14T06:49:22.800Z,29.90
2022-11-14T06:51:55.137Z,26.70
2022-11-14T06:54:27.384Z,29.10
2022-11-14T06:56:59.522Z,30.60
2022-11-14T06:59:31.837Z,28.70
2022-11-14T07:02:04.182Z,26.80
2022-11-14T07:04:36.445Z,28.20
2022-11-14T07:07:08.768Z,28.30
2022-11-14T07:09:41.280Z,28.00
2022-11-14T07:12:13.772Z,29.20
2022-11-14T07:14:45.966Z,29.00
2022-11-14T07:17:18.209Z,29.00
2022-11-14T07:19:50.392Z,27.20
2022-11-14T07:22:22.749Z,26.10
2022-11-14T07:24:55.022Z,31.00
2022-11-14T07:27:27.305Z,26.70
2022-11-14T07:29:59.613Z,30.20
2022-11-14T07:32:31.863Z,28.80
2022-11-14T07:35:04.046Z,30.10
2022-11-14T07:37:36.418Z,27.80
2022-11-14T07:40:10.485Z,29.40
2022-11-14T07:42:42.656Z,29.20
2022-11-14T07:45:15.859Z,29.50
2022-11-14T07:47:48.013Z,28.50
2022-11-14T07:50:20.737Z,28.80
2022-11-14T07:52:55.630Z,29.30
2022-11-14T07:55:27.900Z,30.10
2022-11-14T07:58:01.924Z,29.80
2022-11-14T08:00:34.139Z,29.10
2022-11-14T08:03:06.482Z,26.10
2022-11-14T08:05:38.811Z,29.20
2022-11-14T08:08:11.109Z,29.30
2022-11-14T08:10:45.498Z,29.60
2022-11-14T08:13:31.516Z,28.60
2022-11-14T08:16:13.353Z,29.50
2022-11-14T08:19:02.272Z,26.80
2022-11-14T08:21:34.620Z,26.90
2022-11-14T08:24:07.601Z,28.40
2022-11-14T08:26:40.181Z,30.60
2022-11-14T08:31:43.449Z,28.40
2022-11-14T08:36:46.233Z,26.80
2022-11-14T08:39:18.448Z,27.90
2022-11-14T08:41:50.597Z,28.60
2022-11-14T08:44:22.905Z,27.60
2022-11-14T08:46:55.160Z,27.00
2022-11-14T08:49:27.401Z,28.00
2022-11-14T08:51:59.500Z,29.40
2022-11-14T08:54:31.752Z,27.00
2022-11-14T08:57:05.170Z,27.10
2022-11-14T08:59:37.499Z,25.20
2022-11-14T09:02:10.573Z,23.60
2022-11-14T09:04:43.176Z,26.00
2022-11-14T09:07:15.487Z,24.30
2022-11-14T09:09:48.044Z,28.70
2022-11-14T09:14:52.125Z,26.30
2022-11-14T09:17:24.310Z,26.30
2022-11-14T09:20:02.125Z,26.50
2022-11-14T09:22:35.721Z,26.90
2022-11-14T09:25:09.696Z,25.40
2022-11-14T09:27:41.960Z,25.20
2022-11-14T09:30:16.387Z,25.00
2022-11-14T09:32:48.517Z,27.10
2022-11-14T09:35:20.736Z,28.40
2022-11-14T09:37:53.006Z,25.20
2022-11-14T09:40:25.259Z,25.70
2022-11-14T09:43:15.072Z,25.10
2022-11-14T09:45:52.667Z,24.50
2022-11-14T09:48:27.691Z,26.50
2022-11-14T09:51:09.427Z,25.10
2022-11-14T09:53:47.940Z,24.30
2022-11-14T09:56:25.864Z,21.70
2022-11-14T09:58:58.844Z,24.60
2022-11-14T10:01:38.489Z,23.60
2022-11-14T10:04:18.643Z,23.60
2022-11-14T10:06:59.272Z,23.70
2022-11-14T10:16:12.210Z,23.80
2022-11-14T10:18:52.180Z,23.60
2022-11-14T10:21:39.693Z,24.80
2022-11-14T10:24:37.974Z,24.90
2022-11-14T10:27:15.156Z,24.60
2022-11-14T10:30:00.612Z,24.10
2022-11-14T10:32:41.924Z,22.10
2022-11-14T10:35:18.615Z,24.70
2022-11-14T10:37:57.255Z,24.60
2022-11-14T10:40:32.541Z,22.80
2022-11-14T10:43:13.086Z,22.70
2022-11-14T10:45:48.557Z,23.10
2022-11-14T10:48:30.682Z,24.50
2022-11-14T10:51:05.744Z,22.90
2022-11-14T10:53:47.211Z,23.30
2022-11-14T10:56:19.392Z,25.10
2022-11-14T10:58:51.734Z,23.80
2022-11-14T11:01:41.851Z,21.70
2022-11-14T11:04:23.080Z,21.60
2022-11-14T11:06:56.883Z,22.00
2022-11-14T11:09:47.932Z,22.20
2022-11-14T11:12:23.090Z,22.50
2022-11-14T11:15:15.295Z,21.20
2022-11-14T11:17:57.018Z,23.70
2022-11-14T11:20:32.599Z,24.30
2022-11-14T11:23:08.939Z,22.70
2022-11-14T11:25:41.943Z,23.10
2022-11-14T11:28:17.186Z,22.70
2022-11-14T11:30:58.159Z,25.00
2022-11-14T11:33:32.264Z,25.00
2022-11-14T11:36:08.325Z,22.70
2022-11-14T11:38:42.996Z,24.10
2022-11-14T11:42:02.267Z,24.00
2022-11-14T11:44:19.536Z,23.60
2022-11-14T11:46:59.592Z,24.30
2022-11-14T11:49:41.715Z,23.70
2022-11-14T11:52:17.554Z,21.60
2022-11-14T11:54:57.286Z,22.20
2022-11-14T11:57:32.366Z,23.10
2022-11-14T12:00:15.417Z,23.70
2022-11-14T12:02:50.463Z,24.40
2022-11-14T12:05:30.598Z,23.30
2022-11-14T12:08:06.835Z,23.10
2022-11-14T12:10:42.948Z,23.30
2022-11-14T12:13:58.990Z,23.20
2022-11-14T12:16:56.721Z,21.20
2022-11-14T12:19:49.941Z,23.20
2022-11-14T12:22:37.234Z,23.60
2022-11-14T12:25:30.819Z,21.90
2022-11-14T12:28:40.360Z,22.30
2022-11-14T12:31:16.945Z,22.60
2022-11-14T12:33:52.869Z,22.90
2022-11-14T12:36:31.362Z,24.40
2022-11-14T12:39:04.446Z,24.50
2022-11-14T12:41:39.213Z,23.80
2022-11-14T12:44:36.773Z,23.20
2022-11-14T12:47:25.957Z,23.30
2022-11-14T12:50:06.390Z,20.70
2022-11-14T12:53:01.243Z,21.00
2022-11-14T12:55:58.086Z,22.40
2022-11-14T12:58:59.766Z,22.70
2022-11-14T13:01:56.732Z,21.20
2022-11-14T13:04:36.625Z,21.10
2022-11-14T13:07:22.916Z,21.80
2022-11-14T13:10:04.898Z,21.10
2022-11-14T13:12:55.467Z,20.90
2022-11-14T13:15:49.937Z,20.30
2022-11-14T13:18:45.580Z,21.00
2022-11-14T13:21:45.151Z,21.20
2022-11-14T13:24:20.005Z,22.20
2022-11-14T13:26:56.306Z,22.50
2022-11-14T13:30:03.186Z,22.90
2022-11-14T13:33:05.242Z,23.30
2022-11-14T13:36:02.123Z,22.60
2022-11-14T13:39:08.637Z,21.10
2022-11-14T13:42:35.768Z,21.90
2022-11-14T13:45:52.665Z,22.40
2022-11-14T13:48:54.142Z,21.00
2022-11-14T13:51:42.685Z,22.20
2022-11-14T13:54:18.689Z,19.50
2022-11-14T13:57:03.435Z,21.10
2022-11-14T13:59:50.239Z,20.60
2022-11-14T14:02:52.627Z,20.10
2022-11-14T14:05:39.218Z,22.00
2022-11-14T14:08:25.744Z,20.60
2022-11-14T14:11:07.743Z,22.70
2022-11-14T14:13:53.951Z,21.30
2022-11-14T14:16:42.386Z,22.10
2022-11-14T14:19:25.863Z,21.60
2022-11-14T14:22:03.167Z,22.10
2022-11-14T14:24:45.430Z,21.70
2022-11-14T14:27:24.752Z,21.30
2022-11-14T14:30:04.158Z,21.70
2022-11-14T14:32:42.880Z,20.90
2022-11-14T14:35:35.610Z,20.80
2022-11-14T14:44:32.019Z,21.00
2022-11-14T14:47:18.627Z,21.00
2022-11-14T14:49:51.088Z,22.40
2022-11-14T14:52:27.649Z,23.70
2022-11-14T14:55:10.565Z,21.50
2022-11-14T14:57:53.955Z,23.10
2022-11-14T15:00:28.783Z,23.70
2022-11-14T15:03:02.190Z,24.10
2022-11-14T15:08:07.033Z,22.50
2022-11-14T15:10:48.472Z,25.50
2022-11-14T15:13:21.220Z,26.00
2022-11-14T15:15:53.668Z,24.90
2022-11-14T15:18:29.953Z,21.10
2022-11-14T15:21:14.958Z,22.60
2022-11-14T15:23:47.339Z,22.00
2022-11-14T15:26:20.889Z,22.60
2022-11-14T15:28:53.245Z,20.40
2022-11-14T15:31:25.770Z,19.90
2022-11-14T15:34:22.866Z,18.80
2022-11-14T15:37:21.519Z,20.20
2022-11-14T15:39:53.823Z,18.50
2022-11-14T15:42:31.672Z,16.60
2022-11-14T15:45:21.555Z,17.60
2022-11-14T15:48:06.287Z,17.00
2022-11-14T15:50:38.646Z,15.50
2022-11-14T19:07:53.403Z,13.10
2022-11-14T19:10:49.496Z,12.60
2022-11-14T19:13:21.692Z,13.20
2022-11-14T19:15:54.022Z,12.30
2022-11-14T19:18:26.656Z,12.80
2022-11-14T19:21:03.062Z,12.60
2022-11-14T19:23:36.154Z,12.30
2022-11-14T19:26:08.634Z,12.50
2022-11-14T19:28:41.133Z,13.10
2022-11-14T19:33:45.436Z,13.80
2022-11-14T19:36:32.564Z,12.80
2022-11-14T19:39:11.442Z,12.60
2022-11-14T19:44:14.359Z,15.20
2022-11-14T19:46:48.018Z,15.80
2022-11-14T19:49:20.599Z,15.10
2022-11-14T19:51:52.882Z,16.30
2022-11-14T19:54:25.150Z,13.70
2022-11-14T19:56:57.354Z,16.10
2022-11-14T19:59:30.809Z,15.30
2022-11-14T20:02:03.230Z,16.20
2022-11-14T20:04:38.025Z,16.00
2022-11-14T20:07:10.636Z,15.70
2022-11-14T20:09:43.029Z,15.90
2022-11-14T20:12:15.580Z,16.20
2022-11-14T20:14:48.076Z,14.90
2022-11-14T20:17:20.378Z,15.50
2022-11-14T20:19:52.749Z,16.30
2022-11-14T20:22:25.155Z,15.90
2022-11-14T20:24:57.522Z,15.70
2022-11-14T20:27:29.963Z,14.40
2022-11-14T20:30:02.332Z,15.60
2022-11-14T20:32:34.663Z,16.80
2022-11-14T20:35:07.748Z,15.80
2022-11-14T20:37:40.187Z,17.60
2022-11-14T20:40:14.138Z,14.90
2022-11-14T20:42:49.762Z,16.50
2022-11-14T20:45:22.188Z,16.50
2022-11-14T20:47:54.809Z,16.10
2022-11-14T20:52:57.712Z,16.70
2022-11-14T20:55:30.195Z,16.10
2022-11-14T20:58:02.533Z,16.00
2022-11-14T21:00:34.908Z,16.60
2022-11-14T21:03:07.287Z,16.00
2022-11-14T21:05:42.560Z,15.50
2022-11-14T21:08:15.392Z,15.20
2022-11-14T21:10:49.099Z,15.40
2022-11-14T21:13:39.636Z,15.80
2022-11-14T21:16:14.478Z,16.00
2022-11-14T21:18:48.290Z,16.10
2022-11-14T21:21:23.715Z,17.30
2022-11-14T21:23:56.927Z,16.90
2022-11-14T21:26:30.940Z,15.70
2022-11-14T21:29:05.356Z,16.50
2022-11-14T21:31:38.562Z,15.10
2022-11-14T21:34:13.547Z,16.50
2022-11-14T21:36:46.966Z,15.90
2022-11-14T21:39:19.432Z,16.20
2022-11-14T21:41:51.817Z,15.20
2022-11-14T21:44:24.032Z,16.10
2022-11-14T21:46:56.257Z,16.50
2022-11-14T21:49:28.503Z,14.90
2022-11-14T21:52:00.662Z,16.00
2022-11-14T21:54:32.859Z,15.70
2022-11-14T21:57:09.718Z,15.30
2022-11-14T21:59:42.072Z,17.70
2022-11-14T22:02:33.226Z,18.00
2022-11-14T22:05:06.448Z,16.50
2022-11-14T22:07:39.225Z,16.70
2022-11-14T22:10:12.152Z,16.10
2022-11-14T22:12:44.356Z,14.90
2022-11-14T22:15:16.699Z,15.00
2022-11-14T22:17:48.916Z,14.90
2022-11-14T22:20:22.958Z,17.10
2022-11-14T22:22:58.022Z,16.50
2022-11-14T22:25:30.348Z,15.70
2022-11-14T22:28:02.579Z,16.60
2022-11-14T22:30:34.806Z,16.80
2022-11-14T22:33:07.121Z,17.40
2022-11-14T22:35:39.320Z,17.50
2022-11-14T22:38:11.516Z,16.10
2022-11-14T22:40:43.722Z,16.60
2022-11-14T22:43:15.997Z,15.70
2022-11-14T22:45:53.860Z,14.90
2022-11-14T22:48:26.841Z,15.80
2022-11-14T22:51:03.873Z,16.00
2022-11-14T22:53:37.053Z,16.40
2022-11-14T22:56:11.916Z,15.90
2022-11-14T22:58:45.006Z,15.40
2022-11-14T23:01:19.880Z,15.30
2022-11-14T23:03:57.064Z,15.40
2022-11-14T23:06:30.028Z,15.30
2022-11-14T23:09:02.380Z,15.50
2022-11-14T23:11:35.288Z,15.30
2022-11-14T23:14:07.549Z,15.10
2022-11-14T23:16:39.775Z,15.80
2022-11-14T23:19:12.018Z,16.00
2022-11-14T23:21:44.262Z,15.70
2022-11-14T23:24:17.303Z,16.80
2022-11-14T23:26:49.587Z,16.00
2022-11-14T23:29:21.808Z,15.90
2022-11-14T23:31:54.082Z,15.50
2022-11-14T23:34:26.452Z,16.10
2022-11-14T23:36:58.619Z,17.00
2022-11-14T23:39:30.904Z,17.00
2022-11-14T23:42:03.051Z,16.80
2022-11-14T23:44:35.203Z,16.20
2022-11-14T23:47:07.447Z,15.60
2022-11-14T23:49:39.566Z,15.70
2022-11-14T23:52:11.755Z,16.90
2022-11-14T23:54:43.919Z,15.50
2022-11-14T23:57:16.494Z,17.10
